Share

Chandler, OK

Chandler Municipal (KCQB) Elev 984 ft | 35.72 °N, 96.82 °W | Change Station

Current weather conditions updated 14 minutes ago

Clear
Clear
45 °F
Feels Like 41 °F
N
6
Wind Variable Wind from North
Sunrise 6:50 AM
Sunset 8:03 PM
Moon Waning Gibbous

Today is forecast to be Much Warmer than yesterday.

Pressure 30.27 in
Visibility 7.0 miles
Clouds Clear
Windchill 41 °F
Dew Point 43 °F
Humidity 93%
Rainfall 0.00 in
Snow Depth Not available.
UV 0 out of 16
Pollen 6.40 out of 12
Air Quality Not available.
Flu Activity Regional
METAR KCQB 180555Z AUTO 01005KT 7SM CLR 07/06 A3027 RMK AO2

More Conditions Fewer Conditions

Pressure 30.27 in
Visibility 7.0 miles
Clouds Clear
Windchill 41 °F
Dew Point 43 °F
Humidity 93%
Rainfall 0.00 in
Snow Depth Not available.
UV 0 out of 16
Pollen 6.40 out of 12
Air Quality Not available.
Flu Activity Regional
METAR KCQB 180555Z AUTO 01005KT 7SM CLR 07/06 A3027 RMK AO2

More Conditions Fewer Conditions

10-Day Forecast

Almanac

Astronomy

Apr. 18, 2014 Rise Set
Actual Time 6:50 AM CDT 8:03 PM CDT
Civil Twilight 6:24 AM CDT 8:29 PM CDT
Nautical Twilight 5:52 AM CDT 9:01 PM CDT
Astronomical Twilight 5:20 AM CDT 9:34 PM CDT
Moon 11:45 PM CDT 9:18 AM CDT
Length of Visible Light 14h 05m
Length of Day
13h 12m
Tomorrow will be 2m 6s longer.
Waning Gibbous, 90% of the Moon is Illuminated
Today
Waning Gibbous
Apr 22
Last Quarter
Apr 29
New
May 6
First Quarter
May 14
Full

Today's Extremes

State Highs State Lows

Community

  • SUNRISE THROUGH THE TREES.
    SUNRISE THROUGH THE TREES.
  • Dog Wood Blossoms
    Dog Wood Blossoms
  • Morning Light
    Morning Light
  • New Day
    New Day
  • Lake Michigan Sunrise
    Lake Michigan Sunrise

WunderPhotos

Upload Photos

1,702,276 photos uploaded!

WunderBlogs® & News

Nearby

Snow Depth

Station Depth Elevation
No new snow has been reported.

Coastal Water Temperatures

Place Temperature
No Stations Reporting

Earthquake Activity

City Distance Mag. Time & Date
Guthrie, Oklahoma 35 miles 3.0 8:17 AM CDT
2014-04-14
Guthrie, Oklahoma 34 miles 3.7 3:02 PM CDT
2014-04-13
Guthrie, Oklahoma 34 miles 2.9 12:23 PM CDT
2014-04-13
Guthrie, Oklahoma 34 miles 3.8 12:00 PM CDT
2014-04-13
Minimum magnitude displayed is 2.5.

Nearby Weather Stations

Station Location Temp. Windchill Dew Point Humidity Wind Precip. Elev Updated Type
Luther, Luther, OK 49.6 °F 50 °F 37 °F 61% North  at  0.0 mph 0.00 in / hr 958 ft 1:00 AM CDT Normal
Fortelney, Harrah, OK 46.9 °F 47 °F 44 °F 88% North  at  1.1 mph - / hr 1001 ft 12:58 AM CDT Normal
Rock Hollow Lodge, Arcadia, OK 47.5 °F 48 °F 43 °F 85% North  at  0.0 mph 0.00 in / hr 1043 ft 1:09 AM CDT Rapid Fire
6 mi. S (Ham Radio KC5DPT), Stillwater, OK 42.6 °F 43 °F 38 °F 83% NNW  at  0.0 mph 0.00 in / hr 948 ft 1:09 AM CDT Rapid Fire

Show More Stations Show Fewer Stations

What do you think?

We're not finished. Please let us know what you like, what you don't like, and what you are still missing.